Time;durP1;ratioP1;P1;durP2;ratioP2;P2;SDS_P1;SDS_P2;PMS_P1;PMS_P2;Temp;Humidity;BMP_temperature;BMP_pressure;BME280_temperature;BME280_humidity;BME280_pressure;Samples;Min_cycle;Max_cycle;Signal;HPM_P1;HPM_P2
2021/10/24 00:01:00;;;;;;;3.22;2.92;;;5.90;93.50;;;;;;5013087;28;20060;-74
2021/10/24 00:03:26;;;;;;;3.55;2.60;;;5.80;93.50;;;;;;5013222;28;20117;-74
2021/10/24 00:05:52;;;;;;;13.00;2.85;;;5.90;93.40;;;;;;5027364;28;20522;-73
2021/10/24 00:08:20;;;;;;;6.05;2.70;;;5.90;93.40;;;;;;5036512;28;20033;-75
2021/10/24 00:10:46;;;;;;;4.45;2.53;;;5.90;93.50;;;;;;5019295;28;20030;-73
2021/10/24 00:13:12;;;;;;;3.47;2.80;;;6.00;93.40;;;;;;5017016;28;20156;-75
2021/10/24 00:15:38;;;;;;;6.10;2.60;;;6.00;93.30;;;;;;5048790;28;20034;-75
2021/10/24 00:18:04;;;;;;;4.63;2.63;;;6.00;93.30;;;;;;5016785;28;20030;-75
2021/10/24 00:20:30;;;;;;;3.05;2.63;;;6.00;93.40;;;;;;5016870;28;20024;-77
2021/10/24 00:22:56;;;;;;;4.72;2.53;;;6.00;93.30;;;;;;5016834;28;20451;-74
2021/10/24 00:25:21;;;;;;;4.28;3.28;;;6.00;93.30;;;;;;5016786;28;20093;-73
2021/10/24 00:27:48;;;;;;;3.67;3.25;;;5.90;93.30;;;;;;5016778;28;20376;-75
2021/10/24 00:30:14;;;;;;;5.07;3.25;;;5.90;93.50;;;;;;5016801;28;20030;-74
2021/10/24 00:32:40;;;;;;;6.07;2.95;;;5.90;93.70;;;;;;5016718;28;20097;-74
2021/10/24 00:35:06;;;;;;;2.75;2.38;;;6.00;93.80;;;;;;5016350;28;20491;-74
2021/10/24 00:37:32;;;;;;;3.97;2.67;;;5.90;93.90;;;;;;5016644;28;20480;-75
2021/10/24 00:39:58;;;;;;;3.72;2.80;;;5.90;94.00;;;;;;5018995;28;20105;-73
2021/10/24 00:42:24;;;;;;;3.35;2.75;;;5.90;94.20;;;;;;5016403;28;20033;-74
2021/10/24 00:44:49;;;;;;;3.65;2.83;;;5.80;94.20;;;;;;5016190;28;20053;-75
2021/10/24 00:47:15;;;;;;;3.88;2.55;;;5.90;94.20;;;;;;5016320;28;20022;-75
2021/10/24 00:49:41;;;;;;;4.60;2.92;;;5.80;94.30;;;;;;5015831;28;20430;-74
2021/10/24 00:52:07;;;;;;;3.97;2.60;;;5.80;94.30;;;;;;5016033;28;20384;-75
2021/10/24 00:54:35;;;;;;;3.75;2.58;;;5.80;94.40;;;;;;5016036;28;20037;-76
2021/10/24 00:57:01;;;;;;;;;;;5.80;94.50;;;;;;5016385;28;20517;-73
2021/10/24 00:59:27;;;;;;;4.13;2.20;;;5.80;94.20;;;;;;5016042;28;19905;-75
2021/10/24 01:01:54;;;;;;;5.90;3.00;;;5.70;94.50;;;;;;5015852;28;20041;-74
2021/10/24 01:04:21;;;;;;;2.97;2.33;;;5.70;94.70;;;;;;5017888;28;20025;-75
2021/10/24 01:06:51;;;;;;;4.38;3.13;;;5.70;94.80;;;;;;5035558;28;20767;-74
2021/10/24 01:09:21;;;;;;;5.80;3.35;;;5.80;94.90;;;;;;5019437;28;20446;-74
2021/10/24 01:11:48;;;;;;;5.03;3.05;;;5.80;94.80;;;;;;5015720;28;20026;-76
2021/10/24 01:14:14;;;;;;;4.22;2.50;;;5.80;94.70;;;;;;5047562;28;20021;-73
2021/10/24 01:16:41;;;;;;;3.63;2.47;;;5.80;94.70;;;;;;5015564;28;20065;-73
2021/10/24 01:19:10;;;;;;;7.10;5.00;;;5.80;94.70;;;;;;5014789;28;20441;-74
2021/10/24 01:21:36;;;;;;;4.93;2.97;;;5.90;94.60;;;;;;5015378;28;20395;-74
2021/10/24 01:24:02;;;;;;;4.85;3.28;;;5.90;94.60;;;;;;5015795;28;20392;-74
2021/10/24 01:26:29;;;;;;;3.58;2.20;;;5.90;94.50;;;;;;5015363;28;20026;-74
2021/10/24 01:28:56;;;;;;;4.78;2.88;;;5.90;94.30;;;;;;5015516;28;20100;-74
2021/10/24 01:31:23;;;;;;;3.95;2.25;;;5.90;94.40;;;;;;5015292;28;20029;-73
2021/10/24 01:33:49;;;;;;;3.58;2.28;;;6.00;94.40;;;;;;5015547;28;20409;-76
2021/10/24 01:36:15;;;;;;;2.53;2.25;;;6.00;94.30;;;;;;5015107;28;20427;-75
2021/10/24 01:38:51;;;;;;;6.18;2.90;;;6.00;94.20;;;;;;5015229;28;20030;-75
2021/10/24 01:41:19;;;;;;;2.78;2.20;;;6.10;94.00;;;;;;5015084;28;20026;-77
2021/10/24 01:43:46;;;;;;;4.65;2.88;;;6.00;93.90;;;;;;5015060;28;20305;-76
2021/10/24 01:46:14;;;;;;;3.70;2.42;;;6.00;94.00;;;;;;5013559;28;20068;-74
2021/10/24 01:48:40;;;;;;;3.83;3.28;;;6.00;94.00;;;;;;5015260;28;20112;-75
2021/10/24 01:51:07;;;;;;;2.95;2.28;;;6.00;94.10;;;;;;5015006;28;20022;-73
2021/10/24 01:53:35;;;;;;;3.80;2.50;;;6.10;94.10;;;;;;5014929;28;20038;-73
2021/10/24 01:56:01;;;;;;;7.10;2.60;;;6.10;94.00;;;;;;5015051;28;20383;-75
2021/10/24 01:58:27;;;;;;;2.72;2.17;;;6.10;93.80;;;;;;5014850;28;20030;-73
2021/10/24 02:00:54;;;;;;;3.72;2.00;;;6.00;93.80;;;;;;5015061;28;20165;-75
2021/10/24 02:03:20;;;;;;;4.07;2.45;;;6.00;93.90;;;;;;5014859;28;20390;-73
2021/10/24 02:05:46;;;;;;;3.10;1.90;;;6.00;93.90;;;;;;5028680;28;20022;-75
2021/10/24 02:08:13;;;;;;;2.75;1.92;;;6.00;93.90;;;;;;5016537;28;20038;-74
2021/10/24 02:10:40;;;;;;;3.03;2.37;;;5.90;93.80;;;;;;5014908;28;20018;-74
2021/10/24 02:13:06;;;;;;;2.25;1.80;;;6.00;93.90;;;;;;5015471;28;20351;-76
2021/10/24 02:15:33;;;;;;;5.40;2.55;;;6.00;93.90;;;;;;5014703;28;20025;-74
2021/10/24 02:18:00;;;;;;;3.13;2.00;;;6.00;93.90;;;;;;5014900;28;20486;-76
2021/10/24 02:20:26;;;;;;;3.07;2.00;;;6.00;93.90;;;;;;5014380;28;20028;-74
2021/10/24 02:22:52;;;;;;;3.88;2.30;;;6.00;94.00;;;;;;5046150;28;20030;-76
2021/10/24 02:25:18;;;;;;;3.53;2.28;;;6.00;94.00;;;;;;5014378;28;20028;-73
2021/10/24 02:27:45;;;;;;;3.10;1.92;;;6.00;94.10;;;;;;5014136;28;20037;-74
2021/10/24 02:30:13;;;;;;;3.22;1.55;;;6.00;94.10;;;;;;5014104;28;20117;-75
2021/10/24 02:32:40;;;;;;;3.08;1.77;;;5.90;94.40;;;;;;5046145;28;20431;-74
2021/10/24 02:35:07;;;;;;;2.10;1.90;;;5.70;94.80;;;;;;5014210;28;20510;-74
2021/10/24 02:37:33;;;;;;;3.90;2.22;;;5.60;95.20;;;;;;5014216;28;20030;-75
2021/10/24 02:39:59;;;;;;;3.42;1.90;;;5.50;95.50;;;;;;5016985;28;20364;-75
2021/10/24 02:42:25;;;;;;;2.97;2.33;;;5.50;95.70;;;;;;5033945;28;20033;-75
2021/10/24 02:44:50;;;;;;;5.07;2.38;;;5.60;95.80;;;;;;5033780;28;20046;-74
2021/10/24 02:47:20;;;;;;;4.18;2.63;;;5.60;95.90;;;;;;5034507;28;20430;-75
2021/10/24 02:49:47;;;;;;;4.82;2.25;;;5.60;95.90;;;;;;5034280;28;20386;-74
2021/10/24 02:52:14;;;;;;;4.85;3.47;;;5.60;96.00;;;;;;5033981;28;20026;-75
2021/10/24 02:54:40;;;;;;;4.00;2.85;;;5.70;96.10;;;;;;5034300;28;20033;-75
2021/10/24 02:57:06;;;;;;;3.53;2.60;;;5.70;96.10;;;;;;5034078;28;20537;-75
2021/10/24 02:59:32;;;;;;;5.35;2.78;;;5.80;96.10;;;;;;5034059;28;20025;-74
2021/10/24 03:01:59;;;;;;;3.17;2.67;;;5.70;95.90;;;;;;5034195;28;20017;-74
2021/10/24 03:04:25;;;;;;;4.07;2.88;;;5.70;96.00;;;;;;5033889;28;20041;-73
2021/10/24 03:06:50;;;;;;;4.22;3.33;;;5.70;96.20;;;;;;5015539;28;20026;-74
2021/10/24 03:09:17;;;;;;;3.45;3.15;;;5.70;96.20;;;;;;5013896;28;20403;-75
2021/10/24 03:11:42;;;;;;;4.30;3.05;;;5.70;96.20;;;;;;5014079;28;20022;-75
2021/10/24 03:14:08;;;;;;;5.72;3.20;;;5.60;96.10;;;;;;5012890;28;20060;-75
2021/10/24 03:16:34;;;;;;;3.33;2.90;;;5.50;96.30;;;;;;5014920;28;20018;-74
2021/10/24 03:19:01;;;;;;;5.60;3.35;;;5.50;96.40;;;;;;5012351;28;20377;-75
2021/10/24 03:21:29;;;;;;;3.83;2.42;;;5.50;96.50;;;;;;5013771;28;20026;-74
2021/10/24 03:23:55;;;;;;;3.08;2.58;;;5.50;96.50;;;;;;5013625;28;20395;-76
2021/10/24 03:26:21;;;;;;;3.15;2.20;;;5.50;96.50;;;;;;5013498;28;20026;-75
2021/10/24 03:28:47;;;;;;;2.05;1.75;;;5.50;96.70;;;;;;5013062;28;20578;-76
2021/10/24 03:31:14;;;;;;;1.90;1.50;;;5.40;96.70;;;;;;5013211;28;20390;-74
2021/10/24 03:33:40;;;;;;;4.10;1.55;;;5.30;96.80;;;;;;5013342;28;20105;-75
2021/10/24 03:36:06;;;;;;;2.72;1.38;;;5.30;97.00;;;;;;5013073;28;20058;-75
2021/10/24 03:38:33;;;;;;;3.38;1.77;;;5.20;97.20;;;;;;5013271;28;20026;-75
2021/10/24 03:40:59;;;;;;;1.60;1.20;;;5.20;97.40;;;;;;5012402;28;20026;-74
2021/10/24 03:43:26;;;;;;;1.30;1.00;;;5.20;97.40;;;;;;5012712;28;20025;-74
2021/10/24 03:45:52;;;;;;;1.92;1.30;;;5.20;97.50;;;;;;5012838;28;20491;-74
2021/10/24 03:48:18;;;;;;;1.58;1.15;;;5.10;97.70;;;;;;5012986;28;20045;-72
2021/10/24 03:50:44;;;;;;;1.55;1.20;;;5.10;98.10;;;;;;5012984;28;20420;-75
2021/10/24 03:53:09;;;;;;;1.05;0.93;;;5.10;98.00;;;;;;5011946;28;20061;-75
2021/10/24 03:55:36;;;;;;;1.20;1.10;;;5.00;98.00;;;;;;5012958;28;20022;-74
2021/10/24 03:58:02;;;;;;;2.20;0.82;;;4.90;98.20;;;;;;5013188;28;20430;-73
2021/10/24 04:00:27;;;;;;;1.67;0.95;;;4.90;98.40;;;;;;5014279;28;20026;-75
2021/10/24 04:02:56;;;;;;;0.80;0.80;;;4.80;98.60;;;;;;5013148;28;20026;-75
2021/10/24 04:05:23;;;;;;;1.85;0.80;;;4.90;98.80;;;;;;5023255;28;20059;-75
2021/10/24 04:07:54;;;;;;;1.40;0.63;;;4.90;98.80;;;;;;5032329;28;20045;-75
2021/10/24 04:10:23;;;;;;;1.20;0.95;;;4.90;98.80;;;;;;5032718;28;20034;-74
2021/10/24 04:12:50;;;;;;;1.50;1.23;;;4.90;98.90;;;;;;5032302;28;20025;-74
2021/10/24 04:15:17;;;;;;;1.40;1.03;;;4.90;99.10;;;;;;5032684;28;20075;-74
2021/10/24 04:17:44;;;;;;;0.88;0.82;;;4.90;99.10;;;;;;5032387;28;20022;-73
2021/10/24 04:20:13;;;;;;;0.88;0.88;;;4.90;99.20;;;;;;5032357;28;20033;-74
2021/10/24 04:22:40;;;;;;;1.10;1.00;;;4.80;99.30;;;;;;5032263;28;20036;-74
2021/10/24 04:25:09;;;;;;;4.65;1.80;;;4.90;99.50;;;;;;5032013;28;20057;-74
2021/10/24 04:27:35;;;;;;;1.60;1.40;;;4.90;99.50;;;;;;5032116;28;20024;-75
2021/10/24 04:30:04;;;;;;;1.73;1.05;;;4.90;99.60;;;;;;5032182;28;20348;-73
2021/10/24 04:32:29;;;;;;;1.65;1.15;;;4.90;99.60;;;;;;5032510;28;20108;-76
2021/10/24 04:34:55;;;;;;;2.17;1.00;;;4.90;99.60;;;;;;5032232;28;20465;-73
2021/10/24 04:37:21;;;;;;;1.45;1.35;;;4.90;99.60;;;;;;5032570;28;20026;-73
2021/10/24 04:39:47;;;;;;;1.67;1.00;;;4.90;99.60;;;;;;5033117;28;20064;-74
2021/10/24 04:42:13;;;;;;;2.78;1.13;;;4.90;99.60;;;;;;5013172;28;20021;-74
2021/10/24 04:44:39;;;;;;;1.15;1.00;;;4.90;99.90;;;;;;5012389;28;20042;-72
2021/10/24 04:47:05;;;;;;;1.30;0.80;;;4.90;99.70;;;;;;5012436;28;20041;-74
2021/10/24 04:49:31;;;;;;;1.65;1.20;;;4.90;99.60;;;;;;5012608;28;20034;-75
2021/10/24 04:51:58;;;;;;;0.90;0.60;;;4.90;99.50;;;;;;5012342;28;20096;-75
2021/10/24 04:54:24;;;;;;;2.75;0.70;;;4.90;99.50;;;;;;5014688;28;20116;-74
2021/10/24 04:56:53;;;;;;;2.00;0.93;;;4.90;99.50;;;;;;5015899;28;20026;-75
2021/10/24 04:59:19;;;;;;;5.15;1.02;;;5.00;99.40;;;;;;5016265;28;20432;-75
2021/10/24 05:01:47;;;;;;;1.55;0.75;;;5.00;99.10;;;;;;5015900;28;20026;-76
2021/10/24 05:04:13;;;;;;;0.90;0.60;;;5.00;98.90;;;;;;5030532;28;20032;-76
2021/10/24 05:06:39;;;;;;;0.63;0.63;;;5.00;98.60;;;;;;5035594;28;20014;-74
2021/10/24 05:09:05;;;;;;;1.15;0.70;;;5.00;98.50;;;;;;5035380;28;20122;-76
2021/10/24 05:11:32;;;;;;;1.63;0.70;;;4.90;98.30;;;;;;5034291;28;20018;-74
2021/10/24 05:14:02;;;;;;;2.25;0.63;;;4.90;98.30;;;;;;5035671;28;20023;-76
2021/10/24 05:16:28;;;;;;;0.93;0.63;;;4.90;98.10;;;;;;5022696;28;20030;-73
2021/10/24 05:18:53;;;;;;;0.70;0.60;;;4.90;98.10;;;;;;5015526;28;20113;-75
2021/10/24 05:21:19;;;;;;;1.75;1.20;;;4.90;97.90;;;;;;5014232;28;20022;-74
2021/10/24 05:23:45;;;;;;;0.88;0.80;;;4.90;97.90;;;;;;5014051;28;20080;-76
2021/10/24 05:26:11;;;;;;;0.88;0.80;;;4.90;97.80;;;;;;5015955;28;20025;-73
2021/10/24 05:28:37;;;;;;;0.93;0.55;;;4.90;97.70;;;;;;5015560;28;20037;-73
2021/10/24 05:31:03;;;;;;;0.57;0.38;;;5.00;97.70;;;;;;5015304;28;20037;-76
2021/10/24 05:33:28;;;;;;;0.60;0.60;;;5.00;97.50;;;;;;5015438;28;20022;-74
2021/10/24 05:35:54;;;;;;;0.60;0.47;;;5.00;97.40;;;;;;5015421;28;20030;-77
2021/10/24 05:38:21;;;;;;;1.00;0.50;;;5.00;97.20;;;;;;5015201;28;20105;-75
2021/10/24 05:40:48;;;;;;;2.55;1.20;;;5.00;97.00;;;;;;5015559;28;20046;-75
2021/10/24 05:43:15;;;;;;;1.42;1.33;;;5.00;96.90;;;;;;5015178;28;20030;-75
2021/10/24 05:45:44;;;;;;;0.63;0.40;;;5.10;96.70;;;;;;5015123;28;20376;-74
2021/10/24 05:48:11;;;;;;;0.40;0.38;;;5.00;96.50;;;;;;5014790;28;20097;-75
2021/10/24 05:50:38;;;;;;;0.82;0.63;;;5.10;96.30;;;;;;5015329;28;20046;-75
2021/10/24 05:53:04;;;;;;;0.60;0.60;;;5.10;96.20;;;;;;5014923;28;20034;-75
2021/10/24 05:55:30;;;;;;;1.60;1.33;;;5.10;96.00;;;;;;5014797;28;20475;-76
2021/10/24 05:57:56;;;;;;;1.85;0.82;;;5.20;95.70;;;;;;5014684;28;20033;-74
2021/10/24 06:00:22;;;;;;;2.05;0.77;;;5.20;95.60;;;;;;5014910;28;20029;-75
2021/10/24 06:02:48;;;;;;;1.55;0.68;;;5.20;95.50;;;;;;5014514;28;20083;-75
2021/10/24 06:05:14;;;;;;;1.13;0.88;;;5.30;95.40;;;;;;5022616;28;20030;-73
2021/10/24 06:07:39;;;;;;;1.00;0.55;;;5.30;95.20;;;;;;5035179;28;20523;-77
2021/10/24 06:10:13;;;;;;;0.98;0.65;;;5.40;94.90;;;;;;5034354;28;20367;-76
2021/10/24 06:12:45;;;;;;;0.52;0.30;;;5.50;94.70;;;;;;5034761;28;20386;-75
2021/10/24 06:15:14;;;;;;;1.38;0.75;;;5.50;94.50;;;;;;5033393;28;20025;-76
2021/10/24 06:17:40;;;;;;;0.63;0.55;;;5.50;94.50;;;;;;5034819;28;20022;-73
2021/10/24 06:20:08;;;;;;;1.00;0.50;;;5.60;94.40;;;;;;5034437;28;20112;-74
2021/10/24 06:22:35;;;;;;;2.55;0.80;;;5.70;94.10;;;;;;5034669;28;20502;-75
2021/10/24 06:25:02;;;;;;;0.43;0.43;;;5.60;94.10;;;;;;5034504;28;20068;-76
2021/10/24 06:27:28;;;;;;;0.50;0.50;;;5.60;94.00;;;;;;5034705;28;20104;-75
2021/10/24 06:29:54;;;;;;;0.88;0.70;;;5.50;94.20;;;;;;5038221;28;20127;-77
2021/10/24 06:32:20;;;;;;;1.10;0.70;;;5.50;94.30;;;;;;5036852;28;20425;-77
2021/10/24 06:34:46;;;;;;;2.25;0.75;;;5.50;94.30;;;;;;5035366;28;20087;-76
2021/10/24 06:37:17;;;;;;;1.27;0.70;;;5.50;94.20;;;;;;5033851;28;20105;-75
2021/10/24 06:39:43;;;;;;;0.98;0.60;;;5.50;94.20;;;;;;5032797;28;20116;-73
2021/10/24 06:42:09;;;;;;;1.48;0.70;;;5.50;94.30;;;;;;5017954;28;20029;-73
2021/10/24 06:44:35;;;;;;;0.65;0.50;;;5.50;94.20;;;;;;5019570;28;20045;-76
2021/10/24 06:47:00;;;;;;;1.52;0.93;;;5.50;94.10;;;;;;5030807;28;20021;-75
2021/10/24 06:49:26;;;;;;;0.75;0.50;;;5.60;94.30;;;;;;5036062;28;20136;-75
2021/10/24 06:51:52;;;;;;;2.85;1.05;;;5.60;94.30;;;;;;5033664;28;20491;-76
2021/10/24 06:54:20;;;;;;;1.20;0.88;;;5.60;94.30;;;;;;5032324;28;20083;-76
2021/10/24 06:56:52;;;;;;;2.67;1.40;;;5.60;94.30;;;;;;5033696;28;20025;-76
2021/10/24 06:59:18;;;;;;;3.05;1.02;;;5.80;94.20;;;;;;5033826;28;20032;-75
2021/10/24 07:01:43;;;;;;;1.35;1.13;;;5.80;93.90;;;;;;5018077;28;20025;-75
2021/10/24 07:04:12;;;;;;;2.25;1.15;;;5.80;93.90;;;;;;5014518;28;20034;-76
2021/10/24 07:06:38;;;;;;;2.60;1.00;;;5.80;93.80;;;;;;5033554;28;20109;-77
2021/10/24 07:09:03;;;;;;;3.42;0.50;;;5.80;93.60;;;;;;5033366;28;20045;-76
2021/10/24 07:11:29;;;;;;;0.98;0.63;;;5.90;93.40;;;;;;5033364;28;20094;-74
2021/10/24 07:13:55;;;;;;;2.83;0.75;;;5.80;93.40;;;;;;5033056;28;20061;-76
2021/10/24 07:16:21;;;;;;;0.88;0.80;;;5.70;93.40;;;;;;5012833;28;20057;-75
2021/10/24 07:18:46;;;;;;;1.20;0.77;;;5.70;93.60;;;;;;5012929;28;20033;-75
2021/10/24 07:21:12;;;;;;;1.20;0.80;;;5.80;93.60;;;;;;5027559;28;20063;-73
2021/10/24 07:23:38;;;;;;;0.77;0.65;;;5.70;93.70;;;;;;5030893;28;20025;-75
2021/10/24 07:26:04;;;;;;;1.27;0.45;;;5.80;93.80;;;;;;5033508;28;20451;-74
2021/10/24 07:28:30;;;;;;;1.50;0.95;;;5.70;93.70;;;;;;5033713;28;20116;-74
2021/10/24 07:30:58;;;;;;;2.15;1.17;;;5.70;93.70;;;;;;5033041;28;20017;-74
2021/10/24 07:33:24;;;;;;;0.93;0.70;;;5.70;93.80;;;;;;5032956;28;20052;-74
2021/10/24 07:35:53;;;;;;;3.30;1.20;;;5.70;93.90;;;;;;5031507;28;20053;-74
2021/10/24 07:38:19;;;;;;;1.48;0.82;;;5.70;94.20;;;;;;5021243;28;20049;-76
2021/10/24 07:40:52;;;;;;;0.77;0.70;;;5.70;94.10;;;;;;5028518;28;20025;-74
2021/10/24 07:43:22;;;;;;;2.08;1.10;;;5.60;93.90;;;;;;5032797;28;20499;-83
2021/10/24 07:45:49;;;;;;;6.53;1.42;;;5.60;93.70;;;;;;5022734;28;20037;-77
2021/10/24 07:48:16;;;;;;;2.80;1.30;;;5.70;93.50;;;;;;5013869;28;20107;-75
2021/10/24 07:50:45;;;;;;;4.00;1.48;;;5.60;93.40;;;;;;5023083;28;20025;-78
2021/10/24 07:53:12;;;;;;;1.92;1.30;;;5.70;93.60;;;;;;5032677;28;20107;-78
2021/10/24 07:55:38;;;;;;;2.20;1.45;;;5.80;93.50;;;;;;5032767;28;20069;-79
2021/10/24 07:58:04;;;;;;;3.28;1.52;;;5.60;92.90;;;;;;5024513;28;20478;-75
2021/10/24 08:00:30;;;;;;;1.30;1.02;;;5.50;93.20;;;;;;5022758;28;20032;-77
2021/10/24 08:03:00;;;;;;;2.15;1.70;;;5.50;93.20;;;;;;5031281;28;20022;-78
2021/10/24 08:05:28;;;;;;;2.03;1.50;;;5.40;93.40;;;;;;5032353;28;20473;-79
2021/10/24 08:08:01;;;;;;;3.58;2.03;;;5.30;94.00;;;;;;5031751;28;20030;-78
2021/10/24 08:10:27;;;;;;;7.72;4.60;;;5.20;94.00;;;;;;5034721;28;20030;-78
2021/10/24 08:12:54;;;;;;;4.50;1.92;;;5.10;94.00;;;;;;5014144;28;20028;-77
2021/10/24 08:15:23;;;;;;;2.60;2.08;;;5.00;94.20;;;;;;5028895;28;20017;-76
2021/10/24 08:17:49;;;;;;;1.40;1.08;;;5.00;94.40;;;;;;5030583;28;20075;-76
2021/10/24 08:20:16;;;;;;;1.63;1.13;;;4.90;94.50;;;;;;5031106;28;20025;-76
2021/10/24 08:22:42;;;;;;;1.10;0.50;;;4.80;94.50;;;;;;5028967;28;20091;-77
2021/10/24 08:25:09;;;;;;;3.93;0.77;;;4.80;94.30;;;;;;5032238;28;20356;-75
2021/10/24 08:27:41;;;;;;;0.87;0.50;;;4.80;94.60;;;;;;5033548;28;20028;-76
2021/10/24 08:30:09;;;;;;;0.28;0.28;;;4.80;94.40;;;;;;5035025;28;20037;-77
2021/10/24 08:32:41;;;;;;;1.42;0.52;;;4.80;94.20;;;;;;5036508;28;20017;-79
2021/10/24 08:35:11;;;;;;;3.83;0.60;;;4.90;94.10;;;;;;5035351;28;20394;-78
2021/10/24 08:37:37;;;;;;;1.77;1.00;;;5.00;93.50;;;;;;5036379;28;20022;-79
2021/10/24 08:40:06;;;;;;;1.27;0.77;;;5.10;93.40;;;;;;5036438;28;20032;-77
2021/10/24 08:42:38;;;;;;;2.28;0.77;;;5.20;93.00;;;;;;5036351;28;20024;-78
2021/10/24 08:45:07;;;;;;;1.73;1.20;;;5.20;93.00;;;;;;5036348;28;20073;-79
2021/10/24 08:47:38;;;;;;;2.47;0.90;;;5.20;92.80;;;;;;5036294;28;20029;-76
2021/10/24 08:50:05;;;;;;;1.50;0.73;;;5.30;92.60;;;;;;5035818;28;20037;-77
2021/10/24 08:52:38;;;;;;;2.42;0.82;;;5.30;91.90;;;;;;5035364;28;20025;-76
2021/10/24 08:55:07;;;;;;;1.48;0.90;;;5.30;91.60;;;;;;5036663;28;20021;-77
2021/10/24 08:57:33;;;;;;;1.70;0.80;;;5.40;91.30;;;;;;5024111;28;20030;-76
2021/10/24 08:59:59;;;;;;;0.82;0.60;;;5.30;91.20;;;;;;5035109;28;20021;-78
2021/10/24 09:02:55;;;;;;;1.60;0.88;;;5.30;90.70;;;;;;5022767;28;20017;-78
2021/10/24 09:05:39;;;;;;;0.90;0.70;;;5.30;90.90;;;;;;5023199;28;20403;-78
2021/10/24 09:08:09;;;;;;;0.95;0.80;;;5.30;91.00;;;;;;5024583;28;20025;-76
2021/10/24 09:10:45;;;;;;;1.63;0.82;;;5.20;90.90;;;;;;5032995;28;20026;-75
2021/10/24 09:13:19;;;;;;;2.13;0.80;;;5.20;91.00;;;;;;5025688;28;20513;-75
2021/10/24 09:15:56;;;;;;;2.97;1.00;;;5.10;91.30;;;;;;5038807;28;20044;-75
2021/10/24 09:18:45;;;;;;;1.98;1.10;;;5.20;91.70;;;;;;5022870;28;20438;-74
2021/10/24 09:21:19;;;;;;;1.45;0.88;;;5.20;91.50;;;;;;5016323;28;20034;-74
2021/10/24 09:23:56;;;;;;;1.75;0.80;;;5.10;91.60;;;;;;5014870;28;20030;-74
2021/10/24 09:26:27;;;;;;;1.10;0.80;;;5.10;91.80;;;;;;5015485;28;20026;-75
2021/10/24 09:28:59;;;;;;;1.52;1.00;;;5.20;91.70;;;;;;5015336;28;20510;-74
2021/10/24 09:31:30;;;;;;;0.95;0.73;;;5.10;91.40;;;;;;5015786;28;20368;-75
2021/10/24 09:34:08;;;;;;;1.17;0.73;;;5.20;91.40;;;;;;5014004;28;20029;-74
2021/10/24 09:36:49;;;;;;;2.05;1.05;;;5.20;91.10;;;;;;5015156;28;20086;-75
2021/10/24 09:39:14;;;;;;;1.77;1.10;;;5.10;91.30;;;;;;5014418;28;20018;-75
2021/10/24 09:41:43;;;;;;;1.30;0.90;;;5.20;91.20;;;;;;5015260;28;20076;-75
2021/10/24 09:44:14;;;;;;;1.75;1.13;;;5.20;90.60;;;;;;5015146;28;20076;-74
2021/10/24 09:46:56;;;;;;;1.77;1.17;;;5.20;90.80;;;;;;5014791;28;20467;-76
2021/10/24 09:49:26;;;;;;;2.05;0.70;;;5.20;90.70;;;;;;5013557;28;20048;-75
2021/10/24 09:51:55;;;;;;;1.63;1.08;;;5.30;90.50;;;;;;5013826;28;20025;-74
2021/10/24 09:54:30;;;;;;;1.45;0.90;;;5.30;89.10;;;;;;5015103;28;20057;-75
2021/10/24 09:56:56;;;;;;;1.40;0.80;;;5.30;89.00;;;;;;5014896;28;20029;-75
2021/10/24 09:59:22;;;;;;;1.08;0.65;;;5.40;88.60;;;;;;5015016;28;20041;-74
2021/10/24 10:01:56;;;;;;;3.10;0.90;;;5.40;87.40;;;;;;5015230;28;20052;-74
2021/10/24 10:04:24;;;;;;;1.23;0.90;;;5.30;86.40;;;;;;5017729;28;20121;-75
2021/10/24 10:06:50;;;;;;;1.33;0.77;;;5.20;86.40;;;;;;5033340;28;20022;-75
2021/10/24 10:09:16;;;;;;;1.17;0.90;;;5.20;87.00;;;;;;5034498;28;20095;-75
2021/10/24 10:11:54;;;;;;;1.33;0.80;;;5.20;87.60;;;;;;5034517;28;20383;-75
2021/10/24 10:14:29;;;;;;;1.77;0.68;;;5.30;88.00;;;;;;5034421;28;20065;-77
2021/10/24 10:17:08;;;;;;;0.98;0.70;;;5.10;88.60;;;;;;5032819;28;20025;-73
2021/10/24 10:19:36;;;;;;;2.47;0.68;;;4.70;90.20;;;;;;5033025;28;20028;-74
2021/10/24 10:22:27;;;;;;;1.13;0.50;;;4.40;90.80;;;;;;5034277;28;20056;-75
2021/10/24 10:24:53;;;;;;;1.58;1.08;;;4.20;91.50;;;;;;5032685;28;20029;-73
2021/10/24 10:27:41;;;;;;;1.55;1.10;;;4.10;92.30;;;;;;5034035;28;20037;-74
2021/10/24 10:30:29;;;;;;;3.80;0.93;;;4.00;92.50;;;;;;5033908;28;20174;-74
2021/10/24 10:32:55;;;;;;;2.47;1.30;;;3.90;92.40;;;;;;5034019;28;20026;-75
2021/10/24 10:35:23;;;;;;;1.80;0.90;;;3.90;92.50;;;;;;5034056;28;20026;-75
2021/10/24 10:37:53;;;;;;;2.80;1.40;;;4.00;92.70;;;;;;5032654;28;20391;-74
2021/10/24 10:40:37;;;;;;;1.23;0.80;;;4.10;92.80;;;;;;5033867;28;20024;-75
2021/10/24 10:43:22;;;;;;;2.47;1.00;;;4.20;92.50;;;;;;5033576;28;20079;-74
2021/10/24 10:45:56;;;;;;;2.70;1.15;;;4.20;92.10;;;;;;5033550;28;20053;-74
2021/10/24 10:48:34;;;;;;;2.42;1.40;;;4.20;92.00;;;;;;5033690;28;20491;-75
2021/10/24 10:51:24;;;;;;;2.08;1.23;;;4.20;92.00;;;;;;5033751;28;20328;-75
2021/10/24 10:53:58;;;;;;;2.60;1.58;;;4.20;91.90;;;;;;5033450;28;20040;-74
2021/10/24 10:56:28;;;;;;;1.38;1.10;;;4.30;91.90;;;;;;5020169;28;20101;-74
2021/10/24 10:59:01;;;;;;;0.93;0.85;;;4.30;91.30;;;;;;5013921;28;20479;-72
2021/10/24 11:01:28;;;;;;;1.00;0.90;;;4.40;91.00;;;;;;5013852;28;20026;-74
2021/10/24 11:04:08;;;;;;;1.52;0.98;;;4.50;90.60;;;;;;5013911;28;20018;-74
2021/10/24 11:06:36;;;;;;;2.10;1.33;;;4.40;90.40;;;;;;5028899;28;20376;-76
2021/10/24 11:09:03;;;;;;;2.58;2.38;;;4.50;90.80;;;;;;5013553;28;20033;-75
2021/10/24 11:11:42;;;;;;;1.83;1.40;;;4.60;90.20;;;;;;5013788;28;20112;-76
2021/10/24 11:14:14;;;;;;;1.77;1.05;;;4.60;90.10;;;;;;5013807;28;20067;-75
2021/10/24 11:16:51;;;;;;;1.45;1.20;;;4.70;90.00;;;;;;5013292;28;20021;-75
2021/10/24 11:19:36;;;;;;;4.33;2.53;;;4.60;90.00;;;;;;5012770;28;20117;-75
2021/10/24 11:22:17;;;;;;;2.28;1.55;;;4.40;90.60;;;;;;5013605;28;20701;-74
2021/10/24 11:24:51;;;;;;;2.80;1.55;;;4.30;91.20;;;;;;5013663;28;20102;-75
2021/10/24 11:27:22;;;;;;;2.08;1.50;;;4.10;91.70;;;;;;5012191;28;20068;-74
2021/10/24 11:29:56;;;;;;;1.50;1.30;;;3.80;92.10;;;;;;5012092;28;20037;-75
2021/10/24 11:32:37;;;;;;;1.80;0.90;;;3.80;92.40;;;;;;5045204;28;20025;-74
2021/10/24 11:35:20;;;;;;;2.17;1.35;;;3.80;92.60;;;;;;5013521;28;20034;-74
2021/10/24 11:37:53;;;;;;;3.40;0.90;;;3.80;93.00;;;;;;5013405;28;20459;-74
2021/10/24 11:40:32;;;;;;;2.42;1.60;;;3.70;92.40;;;;;;5013341;28;20022;-76
2021/10/24 11:43:20;;;;;;;3.30;1.02;;;3.70;92.60;;;;;;5013155;28;20072;-74
2021/10/24 11:45:54;;;;;;;6.80;1.55;;;3.50;92.60;;;;;;5013011;28;20066;-74
2021/10/24 11:48:31;;;;;;;2.25;1.20;;;3.40;93.40;;;;;;5013489;28;20068;-73
2021/10/24 11:51:00;;;;;;;1.23;1.05;;;3.30;93.20;;;;;;5013656;28;20030;-74
2021/10/24 11:53:30;;;;;;;2.85;1.10;;;3.30;92.60;;;;;;5013561;28;20029;-74
2021/10/24 11:56:04;;;;;;;1.30;0.95;;;3.40;92.30;;;;;;5012188;28;20030;-74
2021/10/24 12:01:36;;;;;;;;;;;3.40;91.80;;;;;;5013493;28;20124;-75
2021/10/24 12:04:10;;;;;;;2.05;1.20;;;3.40;91.60;;;;;;5012759;28;20008;-74
2021/10/24 12:07:00;;;;;;;1.58;0.95;;;3.40;91.10;;;;;;5011685;28;20126;-75
2021/10/24 12:09:47;;;;;;;1.75;1.10;;;3.50;91.10;;;;;;5012785;28;20034;-74
2021/10/24 12:12:15;;;;;;;1.27;0.98;;;3.50;90.40;;;;;;5013242;28;20034;-74
2021/10/24 12:15:03;;;;;;;2.25;1.17;;;3.50;90.00;;;;;;5012881;28;20026;-75
2021/10/24 12:17:35;;;;;;;;;;;3.50;89.90;;;;;;5013433;28;20025;-76
2021/10/24 12:20:18;;;;;;;2.42;1.05;;;3.50;89.00;;;;;;5012305;28;20492;-75
2021/10/24 12:22:58;;;;;;;1.98;1.15;;;3.40;89.20;;;;;;5013016;28;20062;-78
2021/10/24 12:25:56;;;;;;;2.03;1.20;;;3.40;90.00;;;;;;5011771;28;20049;-77
2021/10/24 12:28:40;;;;;;;1.85;1.30;;;3.30;90.90;;;;;;5013399;28;20399;-77
2021/10/24 12:31:16;;;;;;;1.88;1.40;;;3.20;91.40;;;;;;5013358;28;20113;-75
2021/10/24 12:33:44;;;;;;;2.78;0.98;;;3.20;91.30;;;;;;5013074;28;20025;-77
2021/10/24 12:36:12;;;;;;;;;;;3.30;90.50;;;;;;5012153;28;20356;-77
2021/10/24 12:38:52;;;;;;;2.83;0.98;;;3.30;90.30;;;;;;5012906;28;19909;-75
2021/10/24 12:41:46;;;;;;;2.35;1.38;;;3.30;90.20;;;;;;5012837;28;20026;-75
2021/10/24 12:44:24;;;;;;;2.47;1.33;;;3.40;89.20;;;;;;5013046;28;20026;-76
2021/10/24 12:46:51;;;;;;;2.47;1.73;;;3.40;89.50;;;;;;5012802;28;20046;-76
2021/10/24 12:49:23;;;;;;;2.20;1.45;;;3.50;89.30;;;;;;5018655;28;20034;-78
2021/10/24 12:52:07;;;;;;;5.45;1.90;;;3.50;88.20;;;;;;5021818;28;20022;-80
2021/10/24 12:54:33;;;;;;;3.33;1.42;;;3.50;88.30;;;;;;5022703;28;20022;-81
2021/10/24 12:57:01;;;;;;;1.73;1.20;;;3.60;87.80;;;;;;5020735;28;20093;-79
2021/10/24 12:59:29;;;;;;;1.70;1.25;;;3.70;86.60;;;;;;5023189;28;20044;-78
2021/10/24 13:02:00;;;;;;;1.33;0.98;;;3.60;86.40;;;;;;5024340;28;20053;-75
2021/10/24 13:04:26;;;;;;;1.40;0.95;;;3.70;85.80;;;;;;5031830;28;20044;-77
2021/10/24 13:06:52;;;;;;;3.45;1.27;;;3.70;84.50;;;;;;5031568;28;20471;-77
2021/10/24 13:09:20;;;;;;;1.52;1.05;;;3.70;84.70;;;;;;5033657;28;20034;-75
2021/10/24 13:11:46;;;;;;;1.50;1.25;;;3.70;83.90;;;;;;5031582;28;20363;-75